Latest Weather Observations for Dunalley

IDT60801

Issued at 12:35 pm EST Thursday 2 October 2014 (issued every 30 minutes, with the page automatically refreshed every 10 minutes)

About weather observations | Map of weather stations | Latest weather observations for TAS | Other Formats
Station Details ID: 094254 Name: DUNALLEY (STROUD POINT) Lat: -42.90 Lon: 147.79 Height: 12.43 m
Data from the previous 72 hours. | See also: Recent months at Dunalley
Date/Time
EST
Temp
°C
App
Temp
°C
Dew
Point
Rel
Hum
%
Delta-T
°C
Wind Press
QNH
hPa
Press
MSL
hPa
Rain
since 9 am
mm
Dir
 
Spd
km/h
Gust
km/h
Spd
kts
Gust
kts
02/12:30pm 14.4 9.2 9.0 70 2.7 SW 26 33 14 18 1012.4 1012.4 0.0
02/12:00pm 14.5 7.7 7.8 64 3.3 W 33 39 18 21 1012.1 1012.1 0.0
02/11:30am 15.7 9.2 8.2 61 3.8 WSW 32 37 17 20 1011.9 1011.9 0.0
02/11:10am 15.7 10.1 8.9 64 3.5 WSW 28 48 15 26 1012.0 1012.0 0.0
02/11:00am 14.5 7.9 7.8 64 3.3 WSW 32 37 17 20 1012.0 1012.0 0.0
02/10:30am 15.1 8.2 9.0 67 3.1 WSW 35 43 19 23 1011.8 1011.8 0.0
02/10:00am 14.2 4.9 7.7 65 3.2 WSW 46 52 25 28 1011.6 1011.6 0.0
02/09:30am 14.7 4.7 7.7 63 3.5 WSW 50 59 27 32 1011.2 1011.2 0.0
02/09:00am 14.3 5.6 8.3 67 3.0 WSW 44 52 24 28 1011.1 1011.1 0.0
02/08:48am 13.8 6.1 7.1 64 3.3 W 37 57 20 31 1011.0 1011.0 0.0
02/08:30am 13.9 5.6 7.9 67 3.0 WSW 41 48 22 26 1011.1 1011.1 0.0
02/08:00am 13.5 5.2 7.7 68 2.9 WSW 41 52 22 28 1010.9 1010.9 0.0
02/07:38am 13.1 6.3 7.5 69 2.7 W 33 52 18 28 1010.9 1010.9 0.0
02/07:30am 13.0 6.6 7.0 67 2.9 W 30 37 16 20 1011.0 1011.0 0.0
02/07:00am 13.2 6.4 7.0 66 3.0 W 32 48 17 26 1010.7 1010.7 0.0
02/06:30am 12.9 4.0 6.7 66 3.0 W 43 56 23 30 1010.5 1010.5 0.0
02/06:08am 13.0 6.5 6.6 65 3.1 W 30 50 16 27 1010.4 1010.4 0.0
02/06:00am 12.6 6.7 7.3 70 2.6 W 28 33 15 18 1010.3 1010.3 0.0
02/05:30am 12.7 6.0 7.4 70 2.6 WSW 32 44 17 24 1010.0 1010.0 0.0
02/05:27am 12.7 6.4 7.4 70 2.6 W 30 44 16 24 1009.9 1009.9 0.0
02/05:00am 12.7 8.9 5.6 62 3.3 WNW 15 24 8 13 1009.7 1009.7 0.0
02/04:30am 12.9 8.1 5.8 62 3.3 WNW 20 28 11 15 1009.7 1009.7 0.0
02/04:00am 12.9 7.4 6.0 63 3.3 WNW 24 32 13 17 1009.6 1009.6 0.0
02/03:30am 12.7 5.6 6.3 65 3.0 W 33 43 18 23 1009.2 1009.2 0.0
02/03:00am 12.4 5.9 6.5 67 2.8 W 30 37 16 20 1009.2 1009.2 0.0
02/02:30am 12.8 5.6 5.9 63 3.2 W 33 50 18 27 1009.3 1009.3 0.0
02/02:00am 12.6 5.0 6.0 64 3.1 W 35 46 19 25 1009.1 1009.1 0.0
02/01:30am 12.5 5.5 5.9 64 3.1 W 32 41 17 22 1009.4 1009.4 0.0
02/01:21am 12.7 5.5 6.1 64 3.1 W 33 54 18 29 1009.5 1009.5 0.0
02/01:00am 12.9 4.2 5.8 62 3.3 W 41 54 22 29 1009.6 1009.6 0.0
02/12:30am 12.6 5.5 5.5 62 3.3 W 32 43 17 23 1010.1 1010.1 0.0
02/12:24am 12.7 5.6 5.6 62 3.3 W 32 52 17 28 1010.2 1010.2 0.0
02/12:00am 12.7 5.7 5.8 63 3.2 WNW 32 48 17 26 1010.3 1010.3 0.0
 
Date/Time
EST
Temp
°C
App
Temp
°C
Dew
Point
Rel
Hum
%
Delta-T
°C
Wind Press
QNH
hPa
Press
MSL
hPa
Rain
since 9 am
mm
Dir
 
Spd
km/h
Gust
km/h
Spd
kts
Gust
kts
01/11:57pm 12.6 6.0 6.0 64 3.1 WNW 30 48 16 26 1010.3 1010.3 0.0
01/11:30pm 12.3 6.5 6.1 66 2.9 WNW 26 39 14 21 1011.0 1011.0 0.0
01/11:00pm 12.1 7.6 5.9 66 2.9 NW 19 30 10 16 1011.4 1011.4 0.0
01/10:30pm 11.8 4.8 5.9 67 2.8 WNW 32 46 17 25 1011.6 1011.6 0.0
01/10:00pm 11.8 4.7 5.4 65 3.0 WNW 32 48 17 26 1011.6 1011.6 0.0
01/09:52pm 11.5 5.1 5.4 66 2.8 WNW 28 48 15 26 1011.8 1011.8 0.0
01/09:30pm 11.5 5.5 5.2 65 2.9 NW 26 35 14 19 1012.0 1012.0 0.0
01/09:00pm 10.9 5.5 4.6 65 2.8 NW 22 32 12 17 1012.3 1012.3 0.0
01/08:30pm 10.6 5.5 4.3 65 2.8 WNW 20 30 11 16 1013.0 1013.0 0.0
01/08:00pm 10.9 4.6 3.9 62 3.1 NW 26 33 14 18 1013.2 1013.2 0.0
01/07:30pm 11.4 4.0 4.2 61 3.2 WNW 32 43 17 23 1013.6 1013.6 0.0
01/07:00pm 11.2 4.9 4.0 61 3.2 WNW 26 37 14 20 1013.9 1013.9 0.0
01/06:30pm 11.2 5.3 4.0 61 3.2 WNW 24 33 13 18 1014.2 1014.2 0.0
01/06:00pm 11.9 5.1 5.3 64 3.0 W 30 39 16 21 1014.3 1014.3 0.0
01/05:30pm 12.3 3.8 5.2 62 3.3 WSW 39 46 21 25 1014.3 1014.3 0.0
01/05:00pm 12.3 3.3 4.8 60 3.4 WSW 41 50 22 27 1013.8 1013.8 0.0
01/04:30pm 12.9 5.1 5.1 59 3.6 WSW 35 43 19 23 1013.9 1013.9 0.0
01/04:00pm 12.8 3.5 5.2 60 3.5 WSW 43 50 23 27 1013.6 1013.6 0.0
01/03:30pm 13.0 4.1 4.9 58 3.7 WSW 41 46 22 25 1013.4 1013.4 0.0
01/03:00pm 12.8 3.5 5.7 62 3.3 WSW 44 54 24 29 1013.2 1013.2 0.0
01/02:30pm 13.0 3.9 5.7 61 3.4 WSW 43 52 23 28 1013.7 1013.7 0.0
01/02:00pm 13.1 6.2 4.5 56 3.9 WSW 30 35 16 19 1013.4 1013.4 0.0
01/01:30pm 12.3 4.4 4.3 58 3.6 WSW 35 44 19 24 1013.3 1013.3 0.0
01/01:00pm 10.7 2.5 5.0 68 2.6 WSW 37 46 20 25 1013.6 1013.6 0.0
01/12:45pm 10.9 3.0 6.3 73 2.2 SW 37 56 20 30 1013.9 1013.9 0.0
01/12:30pm 12.3 4.3 5.7 64 3.1 WSW 37 50 20 27 1013.8 1013.8 0.0
01/12:00pm 12.4 4.3 5.1 61 3.4 WSW 37 46 20 25 1013.6 1013.6 0.0
01/11:30am 11.8 3.0 5.7 66 2.8 WSW 41 48 22 26 1013.5 1013.5 0.0
01/11:00am 12.6 3.8 3.8 55 4.0 W 39 48 21 26 1013.4 1013.4 0.0
01/10:30am 11.8 2.9 5.0 63 3.1 W 41 52 22 28 1013.4 1013.4 0.0
01/10:00am 11.4 1.9 3.9 60 3.3 W 43 52 23 28 1013.4 1013.4 0.0
01/09:30am 11.3 2.2 4.1 61 3.2 W 41 48 22 26 1013.4 1013.4 0.0
01/09:00am 10.9 1.4 3.9 62 3.1 W 43 50 23 27 1013.1 1013.1 11.2
01/08:30am 10.6 2.7 4.5 66 2.7 W 35 43 19 23 1012.8 1012.8 11.2
01/08:00am 9.8 2.0 3.1 63 2.9 W 33 43 18 23 1012.4 1012.4 11.2
01/07:30am 9.2 0.4 3.6 68 2.4 W 39 46 21 25 1012.0 1012.0 11.2
01/07:00am 8.5 0.1 3.6 71 2.1 W 37 48 20 26 1011.3 1011.3 11.2
01/06:30am 8.0 -1.1 4.2 77 1.7 W 41 50 22 27 1010.5 1010.5 11.2
01/06:00am 7.9 -1.2 3.9 76 1.7 W 41 50 22 27 1009.9 1009.9 11.2
01/05:30am 6.8 -2.9 3.8 81 1.3 WSW 44 57 24 31 1009.3 1009.3 11.2
01/05:00am 8.5 -2.6 2.7 67 2.5 W 50 61 27 33 1007.8 1007.8 11.0
01/04:39am 7.3 0.4 2.8 73 1.9 W 28 48 15 26 1008.0 1008.0 11.0
01/04:30am 7.9 -0.6 3.2 72 2.0 W 37 50 20 27 1007.9 1007.9 11.0
01/04:22am 7.7 0.6 3.6 75 1.8 W 30 50 16 27 1007.9 1007.9 11.0
01/04:00am 6.7 0.8 2.0 72 1.9 W 22 35 12 19 1007.4 1007.4 11.0
01/03:30am 6.5 0.8 2.6 76 1.6 WNW 22 33 12 18 1006.9 1006.9 11.0
01/03:00am 7.4 -2.3 4.0 79 1.5 W 44 54 24 29 1006.3 1006.3 11.0
01/02:30am 7.0 -0.1 3.4 78 1.5 W 30 44 16 24 1006.1 1006.1 11.0
01/02:00am 8.2 -2.7 3.5 72 2.0 W 50 69 27 37 1005.7 1005.7 11.0
01/01:56am 8.0 -2.1 3.8 75 1.8 W 46 67 25 36 1005.6 1005.6 11.0
01/01:30am 6.4 1.9 2.1 74 1.7 WNW 15 20 8 11 1005.3 1005.3 11.0
01/01:00am 7.9 0.5 3.9 76 1.7 W 32 39 17 21 1004.6 1004.6 11.0
01/12:30am 7.8 -1.7 3.8 76 1.7 WSW 43 54 23 29 1004.1 1004.1 11.0
01/12:00am 8.8 -1.9 2.8 66 2.6 WSW 48 59 26 32 1003.6 1003.6 11.0
 
Date/Time
EST
Temp
°C
App
Temp
°C
Dew
Point
Rel
Hum
%
Delta-T
°C
Wind Press
QNH
hPa
Press
MSL
hPa
Rain
since 9 am
mm
Dir
 
Spd
km/h
Gust
km/h
Spd
kts
Gust
kts
30/11:30pm 8.7 -0.5 3.3 69 2.3 WSW 41 50 22 27 1003.2 1003.2 11.0
30/11:00pm 8.8 -0.5 3.2 68 2.4 W 41 52 22 28 1002.4 1002.4 11.0
30/10:30pm 9.1 -0.4 3.7 69 2.3 WSW 43 52 23 28 1002.0 1002.0 11.0
30/10:00pm 9.2 -1.3 3.8 69 2.4 W 48 57 26 31 1001.2 1001.2 11.0
30/09:30pm 9.1 -1.4 3.9 70 2.3 W 48 61 26 33 1000.6 1000.6 11.0
30/09:00pm 9.0 -1.1 3.6 69 2.4 W 46 56 25 30 1000.1 1000.1 11.0
30/08:30pm 9.3 0.2 3.9 69 2.4 WSW 41 50 22 27 1000.0 1000.0 11.0
30/08:00pm 9.2 -0.4 4.4 72 2.1 W 44 54 24 29 999.1 999.1 11.0
30/07:30pm 9.6 0.9 5.8 77 1.7 WSW 41 46 22 25 998.4 998.4 11.0
30/07:17pm 9.6 0.5 6.0 78 1.7 W 43 50 23 27 998.1 998.1 11.0
30/07:00pm 9.7 -3.2 5.9 77 1.8 WSW 63 72 34 39 997.5 997.5 11.0
30/06:56pm 9.2 -4.3 5.0 75 1.9 WSW 65 72 35 39 997.3 997.3 11.0
30/06:30pm 10.6 1.7 7.7 82 1.4 WSW 44 59 24 32 996.5 996.5 11.0
30/06:22pm 10.2 1.7 8.5 89 0.8 WSW 43 48 23 26 996.3 996.3 11.0
30/06:00pm 9.5 6.3 8.4 93 0.5 S 15 24 8 13 996.1 996.1 9.8
30/05:30pm 10.5 8.3 9.3 92 0.6 S 11 15 6 8 995.2 995.2 6.0
30/05:00pm 10.5 8.3 9.3 92 0.6 S 11 19 6 10 994.7 994.7 6.0
30/04:30pm 10.5 8.7 9.6 94 0.5 S 9 13 5 7 994.0 994.0 6.0
30/04:00pm 10.8 9.8 10.3 97 0.3 S 6 9 3 5 993.2 993.2 6.0
30/03:30pm 10.2 8.5 9.7 97 0.3 S 9 13 5 7 993.7 993.7 6.0
30/03:00pm 10.6 9.3 10.0 96 0.3 S 7 9 4 5 994.2 994.2 5.2
30/02:30pm 10.6 5.3 10.0 96 0.3 S 28 37 15 20 994.3 994.3 4.0
30/02:00pm 11.9 5.8 10.3 90 0.8 S 33 43 18 23 992.8 992.8 0.0
30/01:50pm 12.7 7.6 10.6 87 1.1 S 28 37 15 20 992.5 992.5 0.0
30/01:30pm 17.8 15.1 8.9 56 4.6 WNW 13 20 7 11 992.6 992.6 0.0
30/01:00pm 17.2 14.8 10.1 63 3.8 W 13 20 7 11 993.0 993.0 0.0
30/12:30pm 16.8 11.8 9.5 62 3.8 W 26 33 14 18 993.1 993.1 0.0
30/12:00pm 17.8 13.8 9.2 57 4.5 W 20 28 11 15 993.6 993.6 0.0
30/11:30am 18.1 13.2 6.9 48 5.6 NW 22 33 12 18 993.9 993.9 0.0
30/11:00am 18.2 14.2 6.7 47 5.8 NNW 17 33 9 18 994.2 994.2 0.0
30/10:30am 18.4 12.6 6.3 45 6.0 NW 26 37 14 20 994.7 994.7 0.0
30/10:00am 18.5 13.8 6.0 44 6.2 NW 20 32 11 17 995.3 995.3 0.0
30/09:30am 18.0 13.4 6.5 47 5.7 NNW 20 37 11 20 996.0 996.0 0.0
30/09:00am 17.9 13.5 7.3 50 5.4 N 20 37 11 20 996.6 996.6 0.0
30/08:30am 16.7 12.4 5.3 47 5.5 NW 17 28 9 15 997.3 997.3 0.0
30/08:00am 16.3 11.5 5.6 49 5.2 NNW 20 43 11 23 997.6 997.6 0.0
30/07:30am 15.2 12.8 7.0 58 4.0 NNE 9 17 5 9 997.8 997.8 0.0
30/07:00am 13.5 8.4 7.5 67 3.0 ENE 24 32 13 17 997.9 997.9 0.0
30/06:30am 12.4 8.1 7.7 73 2.3 NE 20 24 11 13 998.6 998.6 0.0
30/06:00am 11.3 8.8 6.4 72 2.3 NNE 9 17 5 9 999.0 999.0 0.0
30/05:30am 11.4 8.5 6.3 71 2.4 NNE 11 22 6 12 999.2 999.2 0.0
30/05:00am 13.6 10.2 5.7 59 3.8 N 13 20 7 11 999.4 999.4 0.0
30/04:30am 14.3 11.3 4.3 51 4.6 N 9 19 5 10 999.4 999.4 0.0
30/04:00am 13.2 10.5 5.6 60 3.6 NE 9 20 5 11 999.7 999.7 0.0
30/03:30am 14.5 10.0 4.2 50 4.7 NNW 17 28 9 15 999.9 999.9 0.0
30/03:00am 14.1 10.5 4.9 54 4.3 N 13 28 7 15 1000.3 1000.3 0.0
30/02:30am 12.7 10.8 6.7 67 2.9 NE 6 13 3 7 1000.9 1000.9 0.0
30/02:00am 12.5 9.6 6.5 67 2.9 NNE 11 20 6 11 1001.4 1001.4 0.0
30/01:30am 12.7 8.1 5.8 63 3.2 NE 19 26 10 14 1001.7 1001.7 0.0
30/01:00am 14.4 10.4 4.7 52 4.5 NW 15 26 8 14 1002.1 1002.1 0.0
30/12:30am 13.9 8.9 4.8 54 4.2 NW 20 33 11 18 1002.3 1002.3 0.0
30/12:00am 14.1 8.7 4.7 53 4.4 NNW 22 37 12 20 1002.5 1002.5 0.0
 
Date/Time
EST
Temp
°C
App
Temp
°C
Dew
Point
Rel
Hum
%
Delta-T
°C
Wind Press
QNH
hPa
Press
MSL
hPa
Rain
since 9 am
mm
Dir
 
Spd
km/h
Gust
km/h
Spd
kts
Gust
kts
29/11:30pm 14.0 9.1 4.3 52 4.5 NW 19 32 10 17 1002.7 1002.7 0.0
29/11:00pm 13.4 9.2 4.0 53 4.3 NW 15 26 8 14 1003.0 1003.0 0.0
29/10:30pm 13.8 8.7 4.1 52 4.4 NW 20 30 11 16 1003.2 1003.2 0.0
29/10:00pm 13.9 8.7 3.7 50 4.6 NW 20 35 11 19 1003.3 1003.3 0.0
29/09:30pm 13.7 8.4 3.2 49 4.7 NW 20 32 11 17 1003.5 1003.5 0.0
29/09:00pm 13.4 9.0 2.9 49 4.7 WNW 15 24 8 13 1003.6 1003.6 0.0
29/08:30pm 13.7 8.9 2.6 47 4.9 WNW 17 30 9 16 1003.7 1003.7 0.0
29/08:00pm 14.5 8.3 2.4 44 5.4 WNW 24 41 13 22 1003.8 1003.8 0.0
29/07:30pm 14.3 9.6 2.9 46 5.1 WNW 17 26 9 14 1003.4 1003.4 0.0
29/07:00pm 15.4 9.8 3.2 44 5.6 WNW 22 37 12 20 1003.1 1003.1 0.0
29/06:30pm 15.6 10.3 3.1 43 5.7 WNW 20 33 11 18 1002.8 1002.8 0.0
29/06:00pm 16.2 9.7 2.9 41 6.1 WNW 26 35 14 19 1002.4 1002.4 0.0
29/05:30pm 17.3 12.2 3.9 41 6.3 W 20 32 11 17 1002.3 1002.3 0.0
29/05:00pm 17.9 13.1 4.5 41 6.4 W 19 28 10 15 1002.0 1002.0 0.0
29/04:30pm 18.2 13.0 3.7 38 6.8 W 20 32 11 17 1002.0 1002.0 0.0
29/04:00pm 18.4 12.4 3.5 37 7.0 WNW 24 43 13 23 1002.1 1002.1 0.0
29/03:30pm 18.1 11.4 3.9 39 6.7 WNW 28 43 15 23 1002.4 1002.4 0.0
29/03:00pm 18.9 12.2 3.5 36 7.3 WNW 28 44 15 24 1002.6 1002.6 0.0
29/02:41pm 18.5 10.8 2.4 34 7.4 WNW 32 59 17 32 1002.4 1002.4 0.0
29/02:30pm 18.5 10.8 2.4 34 7.4 WNW 32 44 17 24 1002.8 1002.8 0.0
29/02:00pm 18.5 11.8 3.6 37 7.0 W 28 41 15 22 1003.0 1003.0 0.0
29/01:41pm 18.0 10.2 3.1 37 6.9 W 33 52 18 28 1003.1 1003.1 0.0
29/01:30pm 18.2 9.9 2.1 34 7.3 WNW 35 52 19 28 1003.0 1003.0 0.0
29/01:15pm 17.6 9.6 1.6 34 7.2 WNW 33 52 18 28 1003.3 1003.3 0.0
29/01:00pm 17.5 10.1 1.9 35 7.0 WNW 30 44 16 24 1003.4 1003.4 0.0

Other Formats:

Comma delimited format used in spreadsheet applications
http://www.bom.gov.au/fwo/IDT60801/IDT60801.94951.axf

JavaScript Object Notation format (JSON) in row-major order
http://www.bom.gov.au/fwo/IDT60801/IDT60801.94951.json